sensor_id;sensor_type;location;lat;lon;timestamp;temperature;humidity
5962;DHT22;3007;50.770;0.250;2022-08-21T00:01:21;15.00;99.90
5962;DHT22;3007;50.770;0.250;2022-08-21T00:03:48;15.00;99.90
5962;DHT22;3007;50.770;0.250;2022-08-21T00:06:15;15.00;99.90
5962;DHT22;3007;50.770;0.250;2022-08-21T00:08:46;15.00;99.90
5962;DHT22;3007;50.770;0.250;2022-08-21T00:11:13;15.00;99.90
5962;DHT22;3007;50.770;0.250;2022-08-21T00:13:41;15.00;99.90
5962;DHT22;3007;50.770;0.250;2022-08-21T00:16:08;15.00;99.90
5962;DHT22;3007;50.770;0.250;2022-08-21T00:18:35;15.00;99.90
5962;DHT22;3007;50.770;0.250;2022-08-21T00:21:02;15.00;99.90
5962;DHT22;3007;50.770;0.250;2022-08-21T00:23:29;15.00;99.90
5962;DHT22;3007;50.770;0.250;2022-08-21T00:25:58;14.90;99.90
5962;DHT22;3007;50.770;0.250;2022-08-21T00:28:24;14.90;99.90
5962;DHT22;3007;50.770;0.250;2022-08-21T00:30:51;14.90;99.90
5962;DHT22;3007;50.770;0.250;2022-08-21T00:33:18;14.90;99.90
5962;DHT22;3007;50.770;0.250;2022-08-21T00:35:48;14.90;99.90
5962;DHT22;3007;50.770;0.250;2022-08-21T00:38:15;14.90;99.90
5962;DHT22;3007;50.770;0.250;2022-08-21T00:40:45;14.90;99.90
5962;DHT22;3007;50.770;0.250;2022-08-21T00:43:16;14.90;99.90
5962;DHT22;3007;50.770;0.250;2022-08-21T00:45:44;14.80;99.90
5962;DHT22;3007;50.770;0.250;2022-08-21T00:48:11;14.80;99.90
5962;DHT22;3007;50.770;0.250;2022-08-21T00:50:42;14.80;99.90
5962;DHT22;3007;50.770;0.250;2022-08-21T00:53:10;14.80;99.90
5962;DHT22;3007;50.770;0.250;2022-08-21T00:55:39;14.80;99.90
5962;DHT22;3007;50.770;0.250;2022-08-21T00:58:08;14.80;99.90
5962;DHT22;3007;50.770;0.250;2022-08-21T01:00:39;14.80;99.90
5962;DHT22;3007;50.770;0.250;2022-08-21T01:03:08;14.80;99.90
5962;DHT22;3007;50.770;0.250;2022-08-21T01:05:36;14.70;99.90
5962;DHT22;3007;50.770;0.250;2022-08-21T01:08:04;14.80;99.90
5962;DHT22;3007;50.770;0.250;2022-08-21T01:10:31;14.80;99.90
5962;DHT22;3007;50.770;0.250;2022-08-21T01:12:59;14.80;99.90
5962;DHT22;3007;50.770;0.250;2022-08-21T01:15:29;14.80;99.90
5962;DHT22;3007;50.770;0.250;2022-08-21T01:17:58;14.70;99.90
5962;DHT22;3007;50.770;0.250;2022-08-21T01:20:26;14.80;99.90
5962;DHT22;3007;50.770;0.250;2022-08-21T01:22:54;14.70;99.90
5962;DHT22;3007;50.770;0.250;2022-08-21T01:25:21;14.80;99.90
5962;DHT22;3007;50.770;0.250;2022-08-21T01:27:48;14.80;99.90
5962;DHT22;3007;50.770;0.250;2022-08-21T01:30:20;14.80;99.90
5962;DHT22;3007;50.770;0.250;2022-08-21T01:32:48;14.80;99.90
5962;DHT22;3007;50.770;0.250;2022-08-21T01:35:17;14.90;99.90
5962;DHT22;3007;50.770;0.250;2022-08-21T01:37:45;14.80;99.90
5962;DHT22;3007;50.770;0.250;2022-08-21T01:40:16;14.80;99.90
5962;DHT22;3007;50.770;0.250;2022-08-21T01:42:44;14.80;99.90
5962;DHT22;3007;50.770;0.250;2022-08-21T01:45:13;14.80;99.90
5962;DHT22;3007;50.770;0.250;2022-08-21T01:47:41;14.80;99.90
5962;DHT22;3007;50.770;0.250;2022-08-21T01:50:11;14.80;99.90
5962;DHT22;3007;50.770;0.250;2022-08-21T01:52:38;14.70;99.90
5962;DHT22;3007;50.770;0.250;2022-08-21T01:55:07;14.80;99.90
5962;DHT22;3007;50.770;0.250;2022-08-21T01:57:36;14.70;99.90
5962;DHT22;3007;50.770;0.250;2022-08-21T02:00:04;14.70;99.90
5962;DHT22;3007;50.770;0.250;2022-08-21T02:02:32;14.70;99.90
5962;DHT22;3007;50.770;0.250;2022-08-21T02:04:59;14.70;99.90
5962;DHT22;3007;50.770;0.250;2022-08-21T02:07:25;14.70;99.90
5962;DHT22;3007;50.770;0.250;2022-08-21T02:09:52;14.70;99.90
5962;DHT22;3007;50.770;0.250;2022-08-21T02:12:19;14.70;99.90
5962;DHT22;3007;50.770;0.250;2022-08-21T02:14:47;14.70;99.90
5962;DHT22;3007;50.770;0.250;2022-08-21T02:17:14;14.60;99.90
5962;DHT22;3007;50.770;0.250;2022-08-21T02:19:41;14.70;99.90
5962;DHT22;3007;50.770;0.250;2022-08-21T02:22:09;14.60;99.90
5962;DHT22;3007;50.770;0.250;2022-08-21T02:24:36;14.60;99.90
5962;DHT22;3007;50.770;0.250;2022-08-21T02:27:04;14.60;99.90
5962;DHT22;3007;50.770;0.250;2022-08-21T02:29:31;14.60;99.90
5962;DHT22;3007;50.770;0.250;2022-08-21T02:31:59;14.70;99.90
5962;DHT22;3007;50.770;0.250;2022-08-21T02:34:26;14.60;99.90
5962;DHT22;3007;50.770;0.250;2022-08-21T02:36:52;14.70;99.90
5962;DHT22;3007;50.770;0.250;2022-08-21T02:39:19;14.70;99.90
5962;DHT22;3007;50.770;0.250;2022-08-21T02:41:46;14.80;99.90
5962;DHT22;3007;50.770;0.250;2022-08-21T02:44:13;14.80;99.90
5962;DHT22;3007;50.770;0.250;2022-08-21T02:46:40;14.90;99.90
5962;DHT22;3007;50.770;0.250;2022-08-21T02:49:08;15.00;99.90
5962;DHT22;3007;50.770;0.250;2022-08-21T02:51:35;15.00;99.90
5962;DHT22;3007;50.770;0.250;2022-08-21T02:54:02;15.10;99.90
5962;DHT22;3007;50.770;0.250;2022-08-21T02:56:29;15.20;99.90
5962;DHT22;3007;50.770;0.250;2022-08-21T02:58:56;15.20;99.90
5962;DHT22;3007;50.770;0.250;2022-08-21T03:01:22;15.20;99.90
5962;DHT22;3007;50.770;0.250;2022-08-21T03:03:50;15.20;99.90
5962;DHT22;3007;50.770;0.250;2022-08-21T03:06:21;15.20;99.90
5962;DHT22;3007;50.770;0.250;2022-08-21T03:08:48;15.10;99.90
5962;DHT22;3007;50.770;0.250;2022-08-21T03:11:17;15.10;99.90
5962;DHT22;3007;50.770;0.250;2022-08-21T03:13:44;15.00;99.90
5962;DHT22;3007;50.770;0.250;2022-08-21T03:16:11;15.00;99.90
5962;DHT22;3007;50.770;0.250;2022-08-21T03:18:38;14.90;99.90
5962;DHT22;3007;50.770;0.250;2022-08-21T03:21:06;14.90;99.90
5962;DHT22;3007;50.770;0.250;2022-08-21T03:23:34;14.90;99.90
5962;DHT22;3007;50.770;0.250;2022-08-21T03:26:01;14.80;99.90
5962;DHT22;3007;50.770;0.250;2022-08-21T03:28:29;14.80;99.90
5962;DHT22;3007;50.770;0.250;2022-08-21T03:30:55;14.70;99.90
5962;DHT22;3007;50.770;0.250;2022-08-21T03:33:22;14.70;99.90
5962;DHT22;3007;50.770;0.250;2022-08-21T03:35:57;14.70;99.90
5962;DHT22;3007;50.770;0.250;2022-08-21T03:38:27;14.60;99.90
5962;DHT22;3007;50.770;0.250;2022-08-21T03:40:56;14.60;99.90
5962;DHT22;3007;50.770;0.250;2022-08-21T03:43:22;14.60;99.90
5962;DHT22;3007;50.770;0.250;2022-08-21T03:45:49;14.60;99.90
5962;DHT22;3007;50.770;0.250;2022-08-21T03:48:16;14.60;99.90
5962;DHT22;3007;50.770;0.250;2022-08-21T03:50:44;14.60;99.90
5962;DHT22;3007;50.770;0.250;2022-08-21T03:53:14;14.50;99.90
5962;DHT22;3007;50.770;0.250;2022-08-21T03:55:42;14.50;99.90
5962;DHT22;3007;50.770;0.250;2022-08-21T03:58:10;14.50;99.90
5962;DHT22;3007;50.770;0.250;2022-08-21T04:00:37;14.50;99.90
5962;DHT22;3007;50.770;0.250;2022-08-21T04:03:04;14.40;99.90
5962;DHT22;3007;50.770;0.250;2022-08-21T04:05:32;14.40;99.90
5962;DHT22;3007;50.770;0.250;2022-08-21T04:08:02;14.40;99.90
5962;DHT22;3007;50.770;0.250;2022-08-21T04:10:31;14.40;99.90
5962;DHT22;3007;50.770;0.250;2022-08-21T04:12:59;14.40;99.90
5962;DHT22;3007;50.770;0.250;2022-08-21T04:15:28;14.30;99.90
5962;DHT22;3007;50.770;0.250;2022-08-21T04:17:55;14.30;99.90
5962;DHT22;3007;50.770;0.250;2022-08-21T04:20:22;14.30;99.90
5962;DHT22;3007;50.770;0.250;2022-08-21T04:22:50;14.30;99.90
5962;DHT22;3007;50.770;0.250;2022-08-21T04:25:19;14.30;99.90
5962;DHT22;3007;50.770;0.250;2022-08-21T04:27:46;14.30;99.90
5962;DHT22;3007;50.770;0.250;2022-08-21T04:30:15;14.30;99.90
5962;DHT22;3007;50.770;0.250;2022-08-21T04:32:44;14.30;99.90
5962;DHT22;3007;50.770;0.250;2022-08-21T04:35:13;14.30;99.90
5962;DHT22;3007;50.770;0.250;2022-08-21T04:37:41;14.30;99.90
5962;DHT22;3007;50.770;0.250;2022-08-21T04:40:10;14.40;99.90
5962;DHT22;3007;50.770;0.250;2022-08-21T04:42:42;14.40;99.90
5962;DHT22;3007;50.770;0.250;2022-08-21T04:45:16;14.50;99.90
5962;DHT22;3007;50.770;0.250;2022-08-21T04:47:47;14.60;99.90
5962;DHT22;3007;50.770;0.250;2022-08-21T04:50:14;14.70;99.90
5962;DHT22;3007;50.770;0.250;2022-08-21T04:52:41;14.70;99.90
5962;DHT22;3007;50.770;0.250;2022-08-21T04:55:08;14.80;99.90
5962;DHT22;3007;50.770;0.250;2022-08-21T04:57:35;14.80;99.90
5962;DHT22;3007;50.770;0.250;2022-08-21T05:00:04;14.80;99.90
5962;DHT22;3007;50.770;0.250;2022-08-21T05:02:32;15.00;99.90
5962;DHT22;3007;50.770;0.250;2022-08-21T05:05:00;15.00;99.90
5962;DHT22;3007;50.770;0.250;2022-08-21T05:07:29;15.10;99.90
5962;DHT22;3007;50.770;0.250;2022-08-21T05:09:57;15.20;99.90
5962;DHT22;3007;50.770;0.250;2022-08-21T05:12:25;15.30;99.90
5962;DHT22;3007;50.770;0.250;2022-08-21T05:14:52;15.30;99.90
5962;DHT22;3007;50.770;0.250;2022-08-21T05:17:19;15.40;99.90
5962;DHT22;3007;50.770;0.250;2022-08-21T05:19:46;15.40;99.90
5962;DHT22;3007;50.770;0.250;2022-08-21T05:22:20;15.50;99.90
5962;DHT22;3007;50.770;0.250;2022-08-21T05:24:47;15.60;99.90
5962;DHT22;3007;50.770;0.250;2022-08-21T05:27:14;15.70;99.90
5962;DHT22;3007;50.770;0.250;2022-08-21T05:29:41;15.70;99.90
5962;DHT22;3007;50.770;0.250;2022-08-21T05:32:09;15.70;99.90
5962;DHT22;3007;50.770;0.250;2022-08-21T05:34:37;15.80;99.90
5962;DHT22;3007;50.770;0.250;2022-08-21T05:37:04;15.80;99.90
5962;DHT22;3007;50.770;0.250;2022-08-21T05:39:32;15.90;99.90
5962;DHT22;3007;50.770;0.250;2022-08-21T05:41:59;16.00;99.90
5962;DHT22;3007;50.770;0.250;2022-08-21T05:44:26;16.10;99.90
5962;DHT22;3007;50.770;0.250;2022-08-21T05:46:53;16.10;99.90
5962;DHT22;3007;50.770;0.250;2022-08-21T05:49:22;16.20;99.90
5962;DHT22;3007;50.770;0.250;2022-08-21T05:51:49;16.30;99.90
5962;DHT22;3007;50.770;0.250;2022-08-21T05:54:16;16.30;99.90
5962;DHT22;3007;50.770;0.250;2022-08-21T05:56:44;16.40;99.90
5962;DHT22;3007;50.770;0.250;2022-08-21T05:59:11;16.50;99.90
5962;DHT22;3007;50.770;0.250;2022-08-21T06:01:38;16.50;99.90
5962;DHT22;3007;50.770;0.250;2022-08-21T06:04:06;16.60;99.90
5962;DHT22;3007;50.770;0.250;2022-08-21T06:06:33;16.80;99.90
5962;DHT22;3007;50.770;0.250;2022-08-21T06:09:00;17.00;99.90
5962;DHT22;3007;50.770;0.250;2022-08-21T06:11:27;17.20;99.90
5962;DHT22;3007;50.770;0.250;2022-08-21T06:13:56;17.30;99.90
5962;DHT22;3007;50.770;0.250;2022-08-21T06:16:24;17.40;99.90
5962;DHT22;3007;50.770;0.250;2022-08-21T06:18:53;17.60;99.90
5962;DHT22;3007;50.770;0.250;2022-08-21T06:21:20;17.70;99.90
5962;DHT22;3007;50.770;0.250;2022-08-21T06:23:47;18.20;99.90
5962;DHT22;3007;50.770;0.250;2022-08-21T06:26:14;18.70;99.90
5962;DHT22;3007;50.770;0.250;2022-08-21T06:28:42;18.80;99.90
5962;DHT22;3007;50.770;0.250;2022-08-21T06:31:16;18.80;99.90
5962;DHT22;3007;50.770;0.250;2022-08-21T06:33:44;18.80;99.90
5962;DHT22;3007;50.770;0.250;2022-08-21T06:36:11;18.70;99.90
5962;DHT22;3007;50.770;0.250;2022-08-21T06:38:38;18.70;99.90
5962;DHT22;3007;50.770;0.250;2022-08-21T06:41:06;18.60;99.90
5962;DHT22;3007;50.770;0.250;2022-08-21T06:43:33;18.60;99.90
5962;DHT22;3007;50.770;0.250;2022-08-21T06:46:00;18.50;99.90
5962;DHT22;3007;50.770;0.250;2022-08-21T06:48:28;18.40;99.90
5962;DHT22;3007;50.770;0.250;2022-08-21T06:50:58;18.30;99.90
5962;DHT22;3007;50.770;0.250;2022-08-21T06:53:25;18.30;99.90
5962;DHT22;3007;50.770;0.250;2022-08-21T06:55:53;18.20;99.90
5962;DHT22;3007;50.770;0.250;2022-08-21T06:58:20;18.30;99.90
5962;DHT22;3007;50.770;0.250;2022-08-21T07:00:48;18.60;99.90
5962;DHT22;3007;50.770;0.250;2022-08-21T07:03:18;19.20;99.90
5962;DHT22;3007;50.770;0.250;2022-08-21T07:05:46;19.40;99.90
5962;DHT22;3007;50.770;0.250;2022-08-21T07:08:13;19.60;99.90
5962;DHT22;3007;50.770;0.250;2022-08-21T07:10:40;19.80;99.90
5962;DHT22;3007;50.770;0.250;2022-08-21T07:13:07;19.90;99.90
5962;DHT22;3007;50.770;0.250;2022-08-21T07:15:34;20.00;99.90
5962;DHT22;3007;50.770;0.250;2022-08-21T07:18:01;20.20;99.90
5962;DHT22;3007;50.770;0.250;2022-08-21T07:20:29;20.20;99.90
5962;DHT22;3007;50.770;0.250;2022-08-21T07:23:04;20.10;99.90
5962;DHT22;3007;50.770;0.250;2022-08-21T07:25:31;20.10;99.90
5962;DHT22;3007;50.770;0.250;2022-08-21T07:27:58;20.00;99.90
5962;DHT22;3007;50.770;0.250;2022-08-21T07:30:25;20.00;99.90
5962;DHT22;3007;50.770;0.250;2022-08-21T07:32:53;19.90;99.90
5962;DHT22;3007;50.770;0.250;2022-08-21T07:35:20;19.90;99.90
5962;DHT22;3007;50.770;0.250;2022-08-21T07:37:47;20.00;99.90
5962;DHT22;3007;50.770;0.250;2022-08-21T07:40:16;20.20;99.90
5962;DHT22;3007;50.770;0.250;2022-08-21T07:42:46;20.30;99.90
5962;DHT22;3007;50.770;0.250;2022-08-21T07:45:15;20.40;99.90
5962;DHT22;3007;50.770;0.250;2022-08-21T07:47:43;20.50;99.90
5962;DHT22;3007;50.770;0.250;2022-08-21T07:50:10;20.60;99.90
5962;DHT22;3007;50.770;0.250;2022-08-21T07:52:38;20.60;99.90
5962;DHT22;3007;50.770;0.250;2022-08-21T07:55:06;20.70;99.90
5962;DHT22;3007;50.770;0.250;2022-08-21T07:57:34;20.80;99.90
5962;DHT22;3007;50.770;0.250;2022-08-21T08:00:02;20.80;99.90
5962;DHT22;3007;50.770;0.250;2022-08-21T08:02:30;20.80;99.90
5962;DHT22;3007;50.770;0.250;2022-08-21T08:04:58;20.70;99.90
5962;DHT22;3007;50.770;0.250;2022-08-21T08:07:26;20.60;99.90
5962;DHT22;3007;50.770;0.250;2022-08-21T08:09:53;20.50;99.90
5962;DHT22;3007;50.770;0.250;2022-08-21T08:12:20;20.40;99.90
5962;DHT22;3007;50.770;0.250;2022-08-21T08:14:49;20.30;99.90
5962;DHT22;3007;50.770;0.250;2022-08-21T08:17:16;20.30;99.90
5962;DHT22;3007;50.770;0.250;2022-08-21T08:19:47;20.30;99.90
5962;DHT22;3007;50.770;0.250;2022-08-21T08:22:15;20.20;99.90
5962;DHT22;3007;50.770;0.250;2022-08-21T08:24:42;20.20;99.90
5962;DHT22;3007;50.770;0.250;2022-08-21T08:27:09;20.10;99.90
5962;DHT22;3007;50.770;0.250;2022-08-21T08:29:37;20.10;99.90
5962;DHT22;3007;50.770;0.250;2022-08-21T08:32:06;20.10;99.90
5962;DHT22;3007;50.770;0.250;2022-08-21T08:34:33;20.10;99.90
5962;DHT22;3007;50.770;0.250;2022-08-21T08:37:00;20.00;99.90
5962;DHT22;3007;50.770;0.250;2022-08-21T08:39:28;20.00;99.90
5962;DHT22;3007;50.770;0.250;2022-08-21T08:41:59;20.10;99.90
5962;DHT22;3007;50.770;0.250;2022-08-21T08:44:28;20.10;99.90
5962;DHT22;3007;50.770;0.250;2022-08-21T08:46:56;20.10;99.90
5962;DHT22;3007;50.770;0.250;2022-08-21T08:49:30;20.10;99.90
5962;DHT22;3007;50.770;0.250;2022-08-21T08:52:05;20.20;99.90
5962;DHT22;3007;50.770;0.250;2022-08-21T08:54:37;20.20;99.90
5962;DHT22;3007;50.770;0.250;2022-08-21T08:57:10;20.20;99.90
5962;DHT22;3007;50.770;0.250;2022-08-21T08:59:43;20.20;99.90
5962;DHT22;3007;50.770;0.250;2022-08-21T09:02:13;20.30;99.90
5962;DHT22;3007;50.770;0.250;2022-08-21T09:04:43;20.40;99.90
5962;DHT22;3007;50.770;0.250;2022-08-21T09:07:15;20.50;99.90
5962;DHT22;3007;50.770;0.250;2022-08-21T09:09:52;20.60;99.90
5962;DHT22;3007;50.770;0.250;2022-08-21T09:12:31;20.80;99.90
5962;DHT22;3007;50.770;0.250;2022-08-21T09:15:06;21.10;99.90
5962;DHT22;3007;50.770;0.250;2022-08-21T09:17:43;21.30;99.90
5962;DHT22;3007;50.770;0.250;2022-08-21T09:20:21;21.50;99.90
5962;DHT22;3007;50.770;0.250;2022-08-21T09:22:58;21.50;99.90
5962;DHT22;3007;50.770;0.250;2022-08-21T09:25:32;21.60;99.90
5962;DHT22;3007;50.770;0.250;2022-08-21T09:28:01;21.60;99.90
5962;DHT22;3007;50.770;0.250;2022-08-21T09:30:31;21.50;99.90
5962;DHT22;3007;50.770;0.250;2022-08-21T09:32:58;21.50;99.90
5962;DHT22;3007;50.770;0.250;2022-08-21T09:35:26;21.50;99.90
5962;DHT22;3007;50.770;0.250;2022-08-21T09:37:55;21.50;99.90
5962;DHT22;3007;50.770;0.250;2022-08-21T09:40:30;21.60;99.90
5962;DHT22;3007;50.770;0.250;2022-08-21T09:43:00;21.60;99.90
5962;DHT22;3007;50.770;0.250;2022-08-21T09:45:28;21.60;99.90
5962;DHT22;3007;50.770;0.250;2022-08-21T09:47:55;21.50;99.90
5962;DHT22;3007;50.770;0.250;2022-08-21T09:50:28;21.50;99.90
5962;DHT22;3007;50.770;0.250;2022-08-21T09:52:58;21.50;99.90
5962;DHT22;3007;50.770;0.250;2022-08-21T09:55:32;21.50;99.90
5962;DHT22;3007;50.770;0.250;2022-08-21T09:58:18;21.50;99.90
5962;DHT22;3007;50.770;0.250;2022-08-21T10:00:45;21.50;99.90
5962;DHT22;3007;50.770;0.250;2022-08-21T10:03:22;21.70;99.90
5962;DHT22;3007;50.770;0.250;2022-08-21T10:05:55;21.80;99.90
5962;DHT22;3007;50.770;0.250;2022-08-21T10:08:23;21.90;99.90
5962;DHT22;3007;50.770;0.250;2022-08-21T10:10:54;22.10;99.90
5962;DHT22;3007;50.770;0.250;2022-08-21T10:13:29;22.20;91.20
5962;DHT22;3007;50.770;0.250;2022-08-21T10:16:12;22.30;93.70
5962;DHT22;3007;50.770;0.250;2022-08-21T10:18:43;22.40;74.00
5962;DHT22;3007;50.770;0.250;2022-08-21T10:21:17;22.50;79.80
5962;DHT22;3007;50.770;0.250;2022-08-21T10:24:00;22.60;94.70
5962;DHT22;3007;50.770;0.250;2022-08-21T10:26:43;22.80;76.70
5962;DHT22;3007;50.770;0.250;2022-08-21T10:29:34;22.90;30.30
5962;DHT22;3007;50.770;0.250;2022-08-21T10:32:07;22.90;13.40
5962;DHT22;3007;50.770;0.250;2022-08-21T10:34:42;22.90;26.90
5962;DHT22;3007;50.770;0.250;2022-08-21T10:37:22;22.90;22.30
5962;DHT22;3007;50.770;0.250;2022-08-21T10:40:01;23.00;25.80
5962;DHT22;3007;50.770;0.250;2022-08-21T10:42:36;23.00;19.20
5962;DHT22;3007;50.770;0.250;2022-08-21T10:45:14;23.00;6.80
5962;DHT22;3007;50.770;0.250;2022-08-21T10:47:46;22.90;16.40
5962;DHT22;3007;50.770;0.250;2022-08-21T10:50:26;22.90;18.90
5962;DHT22;3007;50.770;0.250;2022-08-21T10:53:15;22.90;14.70
5962;DHT22;3007;50.770;0.250;2022-08-21T10:55:52;22.90;1.00
5962;DHT22;3007;50.770;0.250;2022-08-21T10:58:27;22.90;8.90
5962;DHT22;3007;50.770;0.250;2022-08-21T11:00:58;22.90;7.80
5962;DHT22;3007;50.770;0.250;2022-08-21T11:03:34;22.90;1.00
5962;DHT22;3007;50.770;0.250;2022-08-21T11:06:08;22.80;5.20
5962;DHT22;3007;50.770;0.250;2022-08-21T11:08:40;22.90;13.70
5962;DHT22;3007;50.770;0.250;2022-08-21T11:11:11;22.90;9.50
5962;DHT22;3007;50.770;0.250;2022-08-21T11:13:41;23.00;8.00
5962;DHT22;3007;50.770;0.250;2022-08-21T11:16:15;23.10;1.00
5962;DHT22;3007;50.770;0.250;2022-08-21T11:18:47;23.00;1.00
5962;DHT22;3007;50.770;0.250;2022-08-21T11:21:27;23.00;1.00
5962;DHT22;3007;50.770;0.250;2022-08-21T11:24:02;23.00;1.00
5962;DHT22;3007;50.770;0.250;2022-08-21T11:26:34;23.10;1.00
5962;DHT22;3007;50.770;0.250;2022-08-21T11:29:12;23.10;1.00
5962;DHT22;3007;50.770;0.250;2022-08-21T11:31:51;23.20;1.00
5962;DHT22;3007;50.770;0.250;2022-08-21T11:34:34;23.20;1.00
5962;DHT22;3007;50.770;0.250;2022-08-21T11:37:11;23.20;1.00
5962;DHT22;3007;50.770;0.250;2022-08-21T11:39:51;23.30;1.00
5962;DHT22;3007;50.770;0.250;2022-08-21T11:42:24;23.40;1.00
5962;DHT22;3007;50.770;0.250;2022-08-21T11:45:03;23.40;1.00
5962;DHT22;3007;50.770;0.250;2022-08-21T11:47:49;23.50;1.00
5962;DHT22;3007;50.770;0.250;2022-08-21T11:50:23;23.40;1.00
5962;DHT22;3007;50.770;0.250;2022-08-21T11:52:53;23.50;1.00
5962;DHT22;3007;50.770;0.250;2022-08-21T11:55:28;23.50;1.00
5962;DHT22;3007;50.770;0.250;2022-08-21T11:58:01;23.70;1.00
5962;DHT22;3007;50.770;0.250;2022-08-21T12:00:34;23.80;1.00
5962;DHT22;3007;50.770;0.250;2022-08-21T12:03:08;23.80;1.00
5962;DHT22;3007;50.770;0.250;2022-08-21T12:05:39;23.80;1.00
5962;DHT22;3007;50.770;0.250;2022-08-21T12:08:11;23.80;1.00
5962;DHT22;3007;50.770;0.250;2022-08-21T12:10:41;23.80;1.00
5962;DHT22;3007;50.770;0.250;2022-08-21T12:13:10;24.00;1.00
5962;DHT22;3007;50.770;0.250;2022-08-21T12:15:39;24.00;1.00
5962;DHT22;3007;50.770;0.250;2022-08-21T12:18:23;24.00;1.00
5962;DHT22;3007;50.770;0.250;2022-08-21T12:21:01;24.10;1.00
5962;DHT22;3007;50.770;0.250;2022-08-21T12:23:31;24.10;1.00
5962;DHT22;3007;50.770;0.250;2022-08-21T12:26:13;24.20;1.00
5962;DHT22;3007;50.770;0.250;2022-08-21T12:28:42;24.20;1.00
5962;DHT22;3007;50.770;0.250;2022-08-21T12:31:18;24.20;1.00
5962;DHT22;3007;50.770;0.250;2022-08-21T12:33:52;24.20;1.00
5962;DHT22;3007;50.770;0.250;2022-08-21T12:36:22;24.20;1.00
5962;DHT22;3007;50.770;0.250;2022-08-21T12:38:57;24.20;1.00
5962;DHT22;3007;50.770;0.250;2022-08-21T12:41:29;24.20;1.00
5962;DHT22;3007;50.770;0.250;2022-08-21T12:43:59;24.20;1.00
5962;DHT22;3007;50.770;0.250;2022-08-21T12:46:34;24.20;1.00
5962;DHT22;3007;50.770;0.250;2022-08-21T12:49:08;24.10;1.00
5962;DHT22;3007;50.770;0.250;2022-08-21T12:51:48;24.10;1.00
5962;DHT22;3007;50.770;0.250;2022-08-21T12:54:25;24.10;1.00
5962;DHT22;3007;50.770;0.250;2022-08-21T12:56:59;24.10;1.00
5962;DHT22;3007;50.770;0.250;2022-08-21T12:59:30;24.00;1.00
5962;DHT22;3007;50.770;0.250;2022-08-21T13:02:00;24.00;1.00
5962;DHT22;3007;50.770;0.250;2022-08-21T13:04:35;24.00;1.00
5962;DHT22;3007;50.770;0.250;2022-08-21T13:07:06;23.90;1.00
5962;DHT22;3007;50.770;0.250;2022-08-21T13:09:41;23.90;1.00
5962;DHT22;3007;50.770;0.250;2022-08-21T13:12:10;23.80;1.00
5962;DHT22;3007;50.770;0.250;2022-08-21T13:14:40;23.90;1.00
5962;DHT22;3007;50.770;0.250;2022-08-21T13:17:14;24.00;1.00
5962;DHT22;3007;50.770;0.250;2022-08-21T13:19:41;24.00;1.00
5962;DHT22;3007;50.770;0.250;2022-08-21T13:22:13;24.00;1.00
5962;DHT22;3007;50.770;0.250;2022-08-21T13:24:40;24.00;1.00
5962;DHT22;3007;50.770;0.250;2022-08-21T13:27:18;24.10;1.00
5962;DHT22;3007;50.770;0.250;2022-08-21T13:29:46;24.10;1.00
5962;DHT22;3007;50.770;0.250;2022-08-21T13:32:21;24.10;1.00
5962;DHT22;3007;50.770;0.250;2022-08-21T13:34:50;24.00;1.00
5962;DHT22;3007;50.770;0.250;2022-08-21T13:37:18;23.90;1.00
5962;DHT22;3007;50.770;0.250;2022-08-21T13:39:49;23.80;1.00
5962;DHT22;3007;50.770;0.250;2022-08-21T13:42:19;23.70;1.00
5962;DHT22;3007;50.770;0.250;2022-08-21T13:44:47;23.60;1.00
5962;DHT22;3007;50.770;0.250;2022-08-21T13:47:16;23.60;1.00
5962;DHT22;3007;50.770;0.250;2022-08-21T13:49:45;23.50;1.00
5962;DHT22;3007;50.770;0.250;2022-08-21T13:52:17;23.40;1.00
5962;DHT22;3007;50.770;0.250;2022-08-21T13:54:52;23.30;1.00
5962;DHT22;3007;50.770;0.250;2022-08-21T13:57:28;23.10;1.00
5962;DHT22;3007;50.770;0.250;2022-08-21T14:00:11;23.10;1.00
5962;DHT22;3007;50.770;0.250;2022-08-21T14:02:39;23.00;1.00
5962;DHT22;3007;50.770;0.250;2022-08-21T14:05:20;22.90;1.00
5962;DHT22;3007;50.770;0.250;2022-08-21T14:07:50;22.70;1.00
5962;DHT22;3007;50.770;0.250;2022-08-21T14:10:19;22.60;1.00
5962;DHT22;3007;50.770;0.250;2022-08-21T14:12:50;22.60;1.00
5962;DHT22;3007;50.770;0.250;2022-08-21T14:15:23;22.50;1.00
5962;DHT22;3007;50.770;0.250;2022-08-21T14:17:51;22.40;5.50
5962;DHT22;3007;50.770;0.250;2022-08-21T14:20:27;22.30;11.20
5962;DHT22;3007;50.770;0.250;2022-08-21T14:22:55;22.20;29.60
5962;DHT22;3007;50.770;0.250;2022-08-21T14:25:30;22.10;29.30
5962;DHT22;3007;50.770;0.250;2022-08-21T14:28:08;22.00;38.40
5962;DHT22;3007;50.770;0.250;2022-08-21T14:30:40;22.00;44.70
5962;DHT22;3007;50.770;0.250;2022-08-21T14:33:10;21.90;47.70
5962;DHT22;3007;50.770;0.250;2022-08-21T14:35:37;21.80;60.70
5962;DHT22;3007;50.770;0.250;2022-08-21T14:38:12;21.90;75.30
5962;DHT22;3007;50.770;0.250;2022-08-21T14:40:39;21.80;73.20
5962;DHT22;3007;50.770;0.250;2022-08-21T14:43:08;21.80;77.50
5962;DHT22;3007;50.770;0.250;2022-08-21T14:45:35;21.80;69.60
5962;DHT22;3007;50.770;0.250;2022-08-21T14:48:04;21.80;66.20
5962;DHT22;3007;50.770;0.250;2022-08-21T14:50:31;21.70;77.20
5962;DHT22;3007;50.770;0.250;2022-08-21T14:52:58;21.80;83.00
5962;DHT22;3007;50.770;0.250;2022-08-21T14:55:25;21.80;92.70
5962;DHT22;3007;50.770;0.250;2022-08-21T14:57:52;21.80;81.00
5962;DHT22;3007;50.770;0.250;2022-08-21T15:00:25;21.80;86.90
5962;DHT22;3007;50.770;0.250;2022-08-21T15:02:52;21.80;79.90
5962;DHT22;3007;50.770;0.250;2022-08-21T15:05:19;21.80;90.00
5962;DHT22;3007;50.770;0.250;2022-08-21T15:07:49;21.80;83.80
5962;DHT22;3007;50.770;0.250;2022-08-21T15:10:16;21.80;93.20
5962;DHT22;3007;50.770;0.250;2022-08-21T15:12:43;21.80;82.60
5962;DHT22;3007;50.770;0.250;2022-08-21T15:15:10;21.70;91.30
5962;DHT22;3007;50.770;0.250;2022-08-21T15:17:39;21.70;91.90
5962;DHT22;3007;50.770;0.250;2022-08-21T15:20:06;21.70;94.50
5962;DHT22;3007;50.770;0.250;2022-08-21T15:22:35;21.60;96.90
5962;DHT22;3007;50.770;0.250;2022-08-21T15:25:02;21.60;99.90
5962;DHT22;3007;50.770;0.250;2022-08-21T15:27:29;21.50;99.90
5962;DHT22;3007;50.770;0.250;2022-08-21T15:29:56;21.60;99.90
5962;DHT22;3007;50.770;0.250;2022-08-21T15:32:27;21.70;99.90
5962;DHT22;3007;50.770;0.250;2022-08-21T15:34:57;21.70;99.90
5962;DHT22;3007;50.770;0.250;2022-08-21T15:37:25;21.70;99.90
5962;DHT22;3007;50.770;0.250;2022-08-21T15:39:52;21.70;99.90
5962;DHT22;3007;50.770;0.250;2022-08-21T15:42:20;21.70;99.90
5962;DHT22;3007;50.770;0.250;2022-08-21T15:44:48;21.70;99.90
5962;DHT22;3007;50.770;0.250;2022-08-21T15:47:22;21.70;99.90
5962;DHT22;3007;50.770;0.250;2022-08-21T15:49:50;21.70;99.90
5962;DHT22;3007;50.770;0.250;2022-08-21T15:52:20;21.70;99.90
5962;DHT22;3007;50.770;0.250;2022-08-21T15:54:50;21.70;95.80
5962;DHT22;3007;50.770;0.250;2022-08-21T15:57:20;21.70;94.00
5962;DHT22;3007;50.770;0.250;2022-08-21T15:59:49;21.70;99.90
5962;DHT22;3007;50.770;0.250;2022-08-21T16:02:19;21.80;99.90
5962;DHT22;3007;50.770;0.250;2022-08-21T16:04:46;21.80;99.90
5962;DHT22;3007;50.770;0.250;2022-08-21T16:07:13;21.80;99.90
5962;DHT22;3007;50.770;0.250;2022-08-21T16:09:42;21.90;99.90
5962;DHT22;3007;50.770;0.250;2022-08-21T16:12:11;21.90;99.90
5962;DHT22;3007;50.770;0.250;2022-08-21T16:14:40;22.00;98.80
5962;DHT22;3007;50.770;0.250;2022-08-21T16:17:07;22.00;98.10
5962;DHT22;3007;50.770;0.250;2022-08-21T16:19:35;22.00;84.90
5962;DHT22;3007;50.770;0.250;2022-08-21T16:22:03;22.00;68.60